createdAt,value
2022-11-24T00:01:21.925Z,8.69
2022-11-24T00:04:04.219Z,8.78
2022-11-24T00:06:32.605Z,8.88
2022-11-24T00:09:00.701Z,8.81
2022-11-24T00:11:30.190Z,9.00
2022-11-24T00:13:57.931Z,8.92
2022-11-24T00:16:28.353Z,9.08
2022-11-24T00:18:57.541Z,8.99
2022-11-24T00:21:25.684Z,8.97
2022-11-24T00:23:53.429Z,9.00
2022-11-24T00:26:25.751Z,8.70
2022-11-24T00:28:55.214Z,8.81
2022-11-24T00:31:31.036Z,8.74
2022-11-24T00:34:00.365Z,8.88
2022-11-24T00:36:31.384Z,9.01
2022-11-24T00:39:04.393Z,9.11
2022-11-24T00:41:32.112Z,9.14
2022-11-24T00:44:00.023Z,9.14
2022-11-24T00:46:27.915Z,9.15
2022-11-24T00:48:55.615Z,9.33
2022-11-24T00:51:26.038Z,9.29
2022-11-24T00:53:54.069Z,9.28
2022-11-24T00:56:21.382Z,9.18
2022-11-24T00:58:48.979Z,9.30
2022-11-24T01:01:21.579Z,9.25
2022-11-24T01:03:49.318Z,9.30
2022-11-24T01:06:18.965Z,9.45
2022-11-24T01:08:46.534Z,9.02
2022-11-24T01:11:18.350Z,9.06
2022-11-24T01:13:47.796Z,9.02
2022-11-24T01:16:22.837Z,8.91
2022-11-24T01:18:50.442Z,8.83
2022-11-24T01:21:18.691Z,8.91
2022-11-24T01:23:46.590Z,8.64
2022-11-24T01:26:16.463Z,8.75
2022-11-24T01:28:46.980Z,8.59
2022-11-24T01:31:15.114Z,8.52
2022-11-24T01:33:42.462Z,8.78
2022-11-24T01:36:10.068Z,8.83
2022-11-24T01:38:37.386Z,8.80
2022-11-24T01:41:17.050Z,8.64
2022-11-24T01:43:45.563Z,8.77
2022-11-24T01:46:19.987Z,8.93
2022-11-24T01:49:02.014Z,8.96
2022-11-24T01:51:31.520Z,8.64
2022-11-24T01:54:02.103Z,8.80
2022-11-24T01:56:30.415Z,8.91
2022-11-24T01:58:59.466Z,9.01
2022-11-24T02:01:27.721Z,8.63
2022-11-24T02:03:55.468Z,8.37
2022-11-24T02:06:28.184Z,8.46
2022-11-24T02:08:55.301Z,8.32
2022-11-24T02:11:23.739Z,8.41
2022-11-24T02:13:53.227Z,8.37
2022-11-24T02:16:20.647Z,8.48
2022-11-24T02:18:48.363Z,8.24
2022-11-24T02:21:16.568Z,8.48
2022-11-24T02:24:07.766Z,8.16
2022-11-24T02:26:46.482Z,7.72
2022-11-24T02:29:14.625Z,7.82
2022-11-24T02:31:45.801Z,7.70
2022-11-24T02:34:13.156Z,7.58
2022-11-24T02:36:40.444Z,7.96
2022-11-24T02:39:12.433Z,8.12
2022-11-24T02:41:42.360Z,8.00
2022-11-24T02:44:09.911Z,8.00
2022-11-24T02:46:37.280Z,7.86
2022-11-24T02:49:04.704Z,7.46
2022-11-24T02:51:34.335Z,7.63
2022-11-24T02:54:01.713Z,7.72
2022-11-24T02:56:29.047Z,7.87
2022-11-24T02:58:56.591Z,8.06
2022-11-24T03:01:24.038Z,7.74
2022-11-24T03:03:51.362Z,7.83
2022-11-24T03:06:18.912Z,7.35
2022-11-24T03:08:46.424Z,7.57
2022-11-24T03:11:13.731Z,7.62
2022-11-24T03:13:41.276Z,7.82
2022-11-24T03:16:09.935Z,7.85
2022-11-24T03:18:37.304Z,8.11
2022-11-24T03:21:04.953Z,7.85
2022-11-24T03:23:32.272Z,7.83
2022-11-24T03:26:18.223Z,7.82
2022-11-24T03:28:45.812Z,7.68
2022-11-24T03:31:14.074Z,7.68
2022-11-24T03:33:41.450Z,7.63
2022-11-24T03:36:09.441Z,7.55
2022-11-24T03:38:36.729Z,7.56
2022-11-24T03:41:04.165Z,7.60
2022-11-24T03:43:31.833Z,7.35
2022-11-24T03:45:59.276Z,7.46
2022-11-24T03:48:26.582Z,7.85
2022-11-24T03:50:55.263Z,7.50
2022-11-24T03:53:24.565Z,7.25
2022-11-24T03:55:52.115Z,7.63
2022-11-24T03:58:19.951Z,7.33
2022-11-24T04:00:51.043Z,6.88
2022-11-24T04:03:19.194Z,6.47
2022-11-24T04:05:46.905Z,6.69
2022-11-24T04:08:14.687Z,6.71
2022-11-24T04:10:42.412Z,6.69
2022-11-24T04:13:14.911Z,6.79
2022-11-24T04:15:43.273Z,6.78
2022-11-24T04:18:11.436Z,6.92
2022-11-24T04:20:39.521Z,6.96
2022-11-24T04:23:07.465Z,6.81
2022-11-24T04:25:35.243Z,6.73
2022-11-24T04:28:02.643Z,6.91
2022-11-24T04:30:30.332Z,6.86
2022-11-24T04:32:57.629Z,6.54
2022-11-24T04:35:25.232Z,6.28
2022-11-24T04:37:52.858Z,6.20
2022-11-24T04:40:20.355Z,6.21
2022-11-24T04:42:55.119Z,6.08
2022-11-24T04:45:23.494Z,6.41
2022-11-24T04:47:50.848Z,6.22
2022-11-24T04:50:18.202Z,6.01
2022-11-24T04:52:45.924Z,5.84
2022-11-24T04:55:13.204Z,5.47
2022-11-24T04:57:40.839Z,5.64
2022-11-24T05:00:09.106Z,5.60
2022-11-24T05:02:36.486Z,5.52
2022-11-24T05:05:04.889Z,5.94
2022-11-24T05:07:32.922Z,5.99
2022-11-24T05:10:18.902Z,5.85
2022-11-24T05:12:54.816Z,5.81
2022-11-24T05:15:22.207Z,6.03
2022-11-24T05:17:49.823Z,6.42
2022-11-24T05:20:18.172Z,6.50
2022-11-24T05:22:45.492Z,6.54
2022-11-24T05:25:14.237Z,6.65
2022-11-24T05:27:41.643Z,6.57
2022-11-24T05:30:09.755Z,6.76
2022-11-24T05:32:37.337Z,6.59
2022-11-24T05:35:05.431Z,6.68
2022-11-24T05:37:32.730Z,7.07
2022-11-24T05:40:00.281Z,7.01
2022-11-24T05:42:47.051Z,6.88
2022-11-24T05:45:18.306Z,7.07
2022-11-24T05:47:46.201Z,7.26
2022-11-24T05:50:15.192Z,6.90
2022-11-24T05:52:42.990Z,7.11
2022-11-24T05:55:11.303Z,6.88
2022-11-24T05:57:38.670Z,6.66
2022-11-24T06:00:07.837Z,6.77
2022-11-24T06:02:40.136Z,6.53
2022-11-24T06:05:08.226Z,6.81
2022-11-24T06:07:35.759Z,6.76
2022-11-24T06:10:03.739Z,6.92
2022-11-24T06:12:31.362Z,6.99
2022-11-24T06:14:58.666Z,7.01
2022-11-24T06:17:26.005Z,6.87
2022-11-24T06:19:53.671Z,6.98
2022-11-24T06:22:21.141Z,6.88
2022-11-24T06:24:50.527Z,6.77
2022-11-24T06:27:18.202Z,6.76
2022-11-24T06:29:46.440Z,6.96
2022-11-24T06:32:13.879Z,6.60
2022-11-24T06:34:41.563Z,6.86
2022-11-24T06:37:08.930Z,6.70
2022-11-24T06:39:36.459Z,6.90
2022-11-24T06:42:04.147Z,7.06
2022-11-24T06:44:31.570Z,7.02
2022-11-24T06:46:59.034Z,6.20
2022-11-24T06:49:26.576Z,6.44
2022-11-24T06:51:55.075Z,6.65
2022-11-24T06:54:22.431Z,6.55
2022-11-24T06:56:50.071Z,6.11
2022-11-24T06:59:19.035Z,6.27
2022-11-24T07:01:46.952Z,6.28
2022-11-24T07:04:15.081Z,6.40
2022-11-24T07:06:42.742Z,6.42
2022-11-24T07:09:11.248Z,6.28
2022-11-24T07:11:39.614Z,6.54
2022-11-24T07:14:07.092Z,6.89
2022-11-24T07:16:34.649Z,6.72
2022-11-24T07:19:02.362Z,6.60
2022-11-24T07:21:30.787Z,6.65
2022-11-24T07:23:58.821Z,7.19
2022-11-24T07:26:27.007Z,6.80
2022-11-24T07:28:54.454Z,6.83
2022-11-24T07:31:24.955Z,6.74
2022-11-24T07:33:54.127Z,6.84
2022-11-24T07:36:22.280Z,7.11
2022-11-24T07:38:49.718Z,7.25
2022-11-24T07:41:19.561Z,7.24
2022-11-24T07:43:47.756Z,7.05
2022-11-24T07:46:17.462Z,7.12
2022-11-24T07:48:45.726Z,7.33
2022-11-24T07:51:13.144Z,7.12
2022-11-24T07:53:40.572Z,7.60
2022-11-24T07:56:09.536Z,7.36
2022-11-24T07:58:37.586Z,7.29
2022-11-24T08:01:16.132Z,7.72
2022-11-24T08:03:44.562Z,7.87
2022-11-24T08:06:35.362Z,7.91
2022-11-24T08:09:00.530Z,7.57
2022-11-24T08:11:27.871Z,7.76
2022-11-24T08:13:55.418Z,7.68
2022-11-24T08:16:23.161Z,7.82
2022-11-24T08:18:52.684Z,7.70
2022-11-24T08:21:20.288Z,7.75
2022-11-24T08:23:47.861Z,7.79
2022-11-24T08:26:18.814Z,7.33
2022-11-24T08:28:47.109Z,7.53
2022-11-24T08:31:18.446Z,7.64
2022-11-24T08:33:46.162Z,7.61
2022-11-24T08:36:18.535Z,7.85
2022-11-24T08:38:46.646Z,7.42
2022-11-24T08:41:15.949Z,7.71
2022-11-24T08:43:43.357Z,7.27
2022-11-24T08:46:13.797Z,7.45
2022-11-24T08:48:41.554Z,7.79
2022-11-24T08:51:11.850Z,7.91
2022-11-24T08:53:40.104Z,7.78
2022-11-24T08:56:08.322Z,7.91
2022-11-24T08:58:36.628Z,7.55
2022-11-24T09:01:16.146Z,7.53
2022-11-24T09:03:50.060Z,7.86
2022-11-24T09:06:19.976Z,7.99
2022-11-24T09:08:47.373Z,7.46
2022-11-24T09:11:16.317Z,7.74
2022-11-24T09:13:44.210Z,7.82
2022-11-24T09:16:14.174Z,7.80
2022-11-24T09:18:41.835Z,7.83
2022-11-24T09:21:15.273Z,7.97
2022-11-24T09:23:44.430Z,7.95
2022-11-24T09:26:14.314Z,7.99
2022-11-24T09:28:42.085Z,8.19
2022-11-24T09:31:12.597Z,8.13
2022-11-24T09:33:40.804Z,7.73
2022-11-24T09:36:08.545Z,7.97
2022-11-24T09:38:36.022Z,8.03
2022-11-24T09:41:31.598Z,8.33
2022-11-24T09:44:32.774Z,8.00
2022-11-24T09:47:10.199Z,8.18
2022-11-24T09:49:59.032Z,8.03
2022-11-24T09:52:39.354Z,8.28
2022-11-24T09:55:19.552Z,8.07
2022-11-24T09:57:49.159Z,8.17
2022-11-24T10:00:16.982Z,7.96
2022-11-24T10:02:46.028Z,8.22
2022-11-24T10:05:13.509Z,7.91
2022-11-24T10:08:01.752Z,7.88
2022-11-24T10:10:49.247Z,8.13
2022-11-24T10:13:31.967Z,8.18
2022-11-24T10:16:27.562Z,7.77
2022-11-24T10:19:21.975Z,7.69
2022-11-24T10:22:06.703Z,7.69
2022-11-24T10:24:45.982Z,7.92
2022-11-24T10:27:18.405Z,7.87
2022-11-24T10:29:49.227Z,7.88
2022-11-24T10:32:27.847Z,8.18
2022-11-24T10:34:59.289Z,7.88
2022-11-24T10:37:35.785Z,7.70
2022-11-24T10:40:55.399Z,8.08
2022-11-24T10:43:13.022Z,8.15
2022-11-24T10:45:40.541Z,8.01
2022-11-24T10:48:20.534Z,8.08
2022-11-24T10:50:48.173Z,8.19
2022-11-24T10:53:22.600Z,8.14
2022-11-24T10:55:56.344Z,8.60
2022-11-24T10:58:26.705Z,8.62
2022-11-24T11:00:55.392Z,8.62
2022-11-24T11:03:28.186Z,8.63
2022-11-24T11:06:10.931Z,8.53
2022-11-24T11:08:38.391Z,8.67
2022-11-24T11:11:21.176Z,8.84
2022-11-24T11:13:56.856Z,8.65
2022-11-24T11:16:46.217Z,8.72
2022-11-24T11:19:49.545Z,8.72
2022-11-24T11:22:29.272Z,8.70
2022-11-24T11:25:04.845Z,8.83
2022-11-24T11:27:32.485Z,9.24
2022-11-24T11:36:10.941Z,9.39
2022-11-24T11:38:39.820Z,9.59
2022-11-24T11:41:13.774Z,9.59
2022-11-24T11:43:41.766Z,9.82
2022-11-24T11:46:15.580Z,9.79
2022-11-24T11:48:47.293Z,9.64
2022-11-24T11:51:32.742Z,9.67
2022-11-24T11:54:18.322Z,9.30
2022-11-24T11:56:50.382Z,9.17
2022-11-24T11:59:32.847Z,9.00
2022-11-24T12:02:13.521Z,9.07
2022-11-24T12:05:00.794Z,9.25
2022-11-24T12:07:56.440Z,8.98
2022-11-24T12:10:41.478Z,9.03
2022-11-24T12:13:53.933Z,9.29
2022-11-24T12:16:56.617Z,8.69
2022-11-24T12:19:23.789Z,8.96
2022-11-24T12:21:55.928Z,9.05
2022-11-24T12:24:31.921Z,9.33
2022-11-24T12:27:04.573Z,9.49
2022-11-24T12:29:59.519Z,9.38
2022-11-24T12:32:26.988Z,9.31
2022-11-24T12:35:06.322Z,9.34
2022-11-24T12:37:45.239Z,9.30
2022-11-24T12:40:46.359Z,9.34
2022-11-24T12:43:34.569Z,9.41
2022-11-24T12:46:04.205Z,9.78
2022-11-24T12:48:54.964Z,9.65
2022-11-24T12:51:33.803Z,9.95
2022-11-24T12:54:03.466Z,9.61
2022-11-24T12:56:55.742Z,9.88
2022-11-24T12:59:34.612Z,9.93
2022-11-24T13:02:20.058Z,9.84
2022-11-24T13:04:53.993Z,9.50
2022-11-24T13:07:34.500Z,9.59
2022-11-24T13:10:54.179Z,9.44
2022-11-24T13:13:16.794Z,9.65
2022-11-24T13:18:59.048Z,9.71
2022-11-24T13:21:32.043Z,9.80
2022-11-24T13:24:26.826Z,9.97
2022-11-24T13:27:15.825Z,10.13
2022-11-24T13:29:44.513Z,10.05
2022-11-24T13:32:11.944Z,10.17
2022-11-24T13:34:39.301Z,10.35
2022-11-24T13:37:31.485Z,9.95
2022-11-24T13:40:23.145Z,10.04
2022-11-24T13:42:57.426Z,9.50
2022-11-24T13:45:45.039Z,9.83
2022-11-24T13:48:21.960Z,9.84
2022-11-24T13:50:50.672Z,10.06
2022-11-24T13:53:35.122Z,10.10
2022-11-24T13:56:02.558Z,10.06
2022-11-24T13:58:34.506Z,10.05
2022-11-24T14:01:07.322Z,9.83
2022-11-24T14:03:36.627Z,10.27
2022-11-24T14:06:04.377Z,10.01
2022-11-24T14:08:34.215Z,9.48
2022-11-24T14:11:03.173Z,9.68
2022-11-24T14:13:33.342Z,9.74
2022-11-24T14:16:06.935Z,9.56
2022-11-24T14:18:55.841Z,9.44
2022-11-24T14:21:31.599Z,9.49
2022-11-24T14:24:27.261Z,9.61
2022-11-24T14:26:54.614Z,9.72
2022-11-24T14:29:23.833Z,9.18
2022-11-24T14:31:55.890Z,9.57
2022-11-24T14:34:26.428Z,9.16
2022-11-24T14:36:55.330Z,9.50
2022-11-24T14:39:25.378Z,9.43
2022-11-24T14:42:16.638Z,9.31
2022-11-24T14:44:48.561Z,9.25
2022-11-24T14:47:36.292Z,9.37
2022-11-24T14:50:15.918Z,9.56
2022-11-24T14:53:03.572Z,9.79
2022-11-24T14:55:32.959Z,9.41
2022-11-24T14:58:00.400Z,9.39
2022-11-24T15:00:30.979Z,9.35
2022-11-24T15:03:01.659Z,9.18
2022-11-24T15:05:52.068Z,9.39
2022-11-24T15:08:19.863Z,9.45
2022-11-24T15:10:47.450Z,9.16
2022-11-24T15:13:23.773Z,9.22
2022-11-24T15:16:15.472Z,9.23
2022-11-24T15:18:45.122Z,8.89
2022-11-24T15:21:19.000Z,9.01
2022-11-24T15:24:05.894Z,8.82
2022-11-24T15:26:39.999Z,8.97
2022-11-24T15:29:09.903Z,9.15
2022-11-24T15:31:41.378Z,9.38
2022-11-24T15:34:12.757Z,9.28
2022-11-24T15:36:40.317Z,9.12
2022-11-24T15:39:07.866Z,9.01
2022-11-24T15:41:35.255Z,8.81
2022-11-24T15:44:02.863Z,8.94
2022-11-24T15:46:37.793Z,9.09
2022-11-24T15:49:06.281Z,9.10
2022-11-24T15:51:33.970Z,9.11
2022-11-24T15:54:01.728Z,9.28
2022-11-24T15:56:32.375Z,8.98
2022-11-24T15:59:00.434Z,9.13
2022-11-24T16:01:31.285Z,8.91
2022-11-24T16:03:59.143Z,8.98
2022-11-24T16:06:26.486Z,8.91
2022-11-24T16:08:54.207Z,8.66
2022-11-24T16:11:22.945Z,8.35
2022-11-24T16:13:53.447Z,8.32
2022-11-24T16:16:24.681Z,8.35
2022-11-24T16:18:52.566Z,8.14
2022-11-24T16:21:19.945Z,8.22
2022-11-24T16:23:48.635Z,7.80
2022-11-24T16:26:16.002Z,7.80
2022-11-24T16:28:45.226Z,7.86
2022-11-24T16:31:15.691Z,7.73
2022-11-24T16:33:44.938Z,7.83
2022-11-24T16:36:13.787Z,8.19
2022-11-24T16:38:41.167Z,7.88
2022-11-24T16:41:10.416Z,7.56
2022-11-24T16:43:38.680Z,7.67
2022-11-24T16:46:21.906Z,7.65
2022-11-24T16:48:51.513Z,7.69
2022-11-24T16:51:20.769Z,7.73
2022-11-24T16:53:48.790Z,7.66
2022-11-24T16:56:17.468Z,7.70
2022-11-24T16:58:44.799Z,7.50
2022-11-24T17:01:12.945Z,7.91
2022-11-24T17:03:40.674Z,7.98
2022-11-24T17:06:11.333Z,8.13
2022-11-24T17:08:40.134Z,7.72
2022-11-24T17:11:14.889Z,8.04
2022-11-24T17:13:43.018Z,8.25
2022-11-24T17:16:12.766Z,7.89
2022-11-24T17:18:40.644Z,8.05
2022-11-24T17:21:13.169Z,8.18
2022-11-24T17:23:40.990Z,8.04
2022-11-24T17:26:11.378Z,8.15
2022-11-24T17:28:39.191Z,8.19
2022-11-24T17:31:17.007Z,8.20
2022-11-24T17:33:44.380Z,8.23
2022-11-24T17:36:12.101Z,8.39
2022-11-24T17:38:39.560Z,7.97
2022-11-24T17:41:06.836Z,8.22
2022-11-24T17:43:34.477Z,7.91
2022-11-24T17:46:03.442Z,7.65
2022-11-24T17:48:31.541Z,7.39
2022-11-24T17:51:01.022Z,7.14
2022-11-24T17:53:28.601Z,7.33
2022-11-24T17:55:59.238Z,7.47
2022-11-24T17:58:28.463Z,7.45
2022-11-24T18:00:56.995Z,7.67
2022-11-24T18:03:31.336Z,8.03
2022-11-24T18:06:13.205Z,7.85
2022-11-24T18:08:43.031Z,8.04
2022-11-24T18:11:12.363Z,8.07
2022-11-24T18:13:58.033Z,8.08
2022-11-24T18:16:30.023Z,8.21
2022-11-24T18:19:14.862Z,7.92
2022-11-24T18:21:44.741Z,7.79
2022-11-24T18:24:12.892Z,8.04
2022-11-24T18:26:40.991Z,8.07
2022-11-24T18:29:09.273Z,8.08
2022-11-24T18:31:37.203Z,8.08
2022-11-24T18:34:05.599Z,7.95
2022-11-24T18:36:34.515Z,7.90
2022-11-24T18:39:03.574Z,7.91
2022-11-24T18:41:30.982Z,7.98
2022-11-24T18:44:02.282Z,7.82
2022-11-24T18:46:29.783Z,7.95
2022-11-24T18:48:57.167Z,7.95
2022-11-24T18:51:24.788Z,8.04
2022-11-24T18:53:58.158Z,8.10
2022-11-24T18:56:26.486Z,8.11
2022-11-24T18:58:54.622Z,8.11
2022-11-24T19:01:27.154Z,7.89
2022-11-24T19:03:56.921Z,7.74
2022-11-24T19:06:31.834Z,7.94
2022-11-24T19:09:02.357Z,7.79
2022-11-24T19:11:33.652Z,7.85
2022-11-24T19:14:02.626Z,7.77
2022-11-24T19:16:30.105Z,7.68
2022-11-24T19:18:59.938Z,7.69
2022-11-24T19:21:28.741Z,7.59
2022-11-24T19:24:01.279Z,7.76
2022-11-24T19:26:32.425Z,7.68
2022-11-24T19:28:59.765Z,7.73
2022-11-24T19:31:27.137Z,7.72
2022-11-24T19:33:55.332Z,7.38
2022-11-24T19:36:23.269Z,7.29
2022-11-24T19:38:52.877Z,7.28
2022-11-24T19:41:22.605Z,7.59
2022-11-24T19:43:50.153Z,7.64
2022-11-24T19:46:18.627Z,7.73
2022-11-24T19:48:49.981Z,7.64
2022-11-24T19:51:30.726Z,7.82
2022-11-24T19:53:58.863Z,8.05
2022-11-24T19:56:29.130Z,7.98
2022-11-24T19:58:57.054Z,8.08
2022-11-24T20:01:30.168Z,8.15
2022-11-24T20:04:00.850Z,8.12
2022-11-24T20:06:36.918Z,8.13
2022-11-24T20:09:07.778Z,8.15
2022-11-24T20:11:35.236Z,8.09
2022-11-24T20:14:02.814Z,8.05
2022-11-24T20:16:32.183Z,8.11
2022-11-24T20:19:11.162Z,8.06
2022-11-24T20:21:40.002Z,8.04
2022-11-24T20:24:10.908Z,8.05
2022-11-24T20:26:41.181Z,7.96
2022-11-24T20:29:09.902Z,8.08
2022-11-24T20:31:40.136Z,8.12
2022-11-24T20:34:10.934Z,8.10
2022-11-24T20:36:40.549Z,8.10
2022-11-24T20:39:12.313Z,7.98
2022-11-24T20:41:40.226Z,8.00
2022-11-24T20:44:13.089Z,8.00
2022-11-24T20:46:42.333Z,7.97
2022-11-24T20:49:13.208Z,7.91
2022-11-24T20:51:46.897Z,7.83
2022-11-24T20:54:15.486Z,7.90
2022-11-24T20:56:44.215Z,7.75
2022-11-24T20:59:16.094Z,7.91
2022-11-24T21:01:45.892Z,7.89
2022-11-24T21:04:18.617Z,7.83
2022-11-24T21:06:46.771Z,7.85
2022-11-24T21:09:14.144Z,7.85
2022-11-24T21:11:41.553Z,7.71
2022-11-24T21:14:09.859Z,7.80
2022-11-24T21:16:38.931Z,7.88
2022-11-24T21:19:12.231Z,7.79
2022-11-24T21:21:41.063Z,7.85
2022-11-24T21:24:16.783Z,7.77
2022-11-24T21:26:47.800Z,7.71
2022-11-24T21:29:17.366Z,7.63
2022-11-24T21:31:45.091Z,7.80
2022-11-24T21:34:15.465Z,7.83
2022-11-24T21:36:45.085Z,7.72
2022-11-24T21:39:14.180Z,7.66
2022-11-24T21:41:41.781Z,7.75
2022-11-24T21:44:11.420Z,7.67
2022-11-24T21:46:44.158Z,7.63
2022-11-24T21:49:15.913Z,7.55
2022-11-24T21:51:43.851Z,7.42
2022-11-24T21:54:11.150Z,7.43
2022-11-24T21:56:38.496Z,7.40
2022-11-24T21:59:06.240Z,7.38
2022-11-24T22:01:33.689Z,7.32
2022-11-24T22:04:01.444Z,7.32
2022-11-24T22:06:29.024Z,7.42
2022-11-24T22:08:56.601Z,7.37
2022-11-24T22:11:25.334Z,7.46
2022-11-24T22:13:52.742Z,7.42
2022-11-24T22:16:22.409Z,7.29
2022-11-24T22:18:50.398Z,7.21
2022-11-24T22:21:29.170Z,7.17
2022-11-24T22:23:56.865Z,7.11
2022-11-24T22:26:24.496Z,7.04
2022-11-24T22:28:53.250Z,7.04
2022-11-24T22:31:23.367Z,7.10
2022-11-24T22:33:51.376Z,7.04
2022-11-24T22:36:21.114Z,7.21
2022-11-24T22:38:57.311Z,7.11
2022-11-24T22:41:25.330Z,7.19
2022-11-24T22:43:53.601Z,7.08
2022-11-24T22:46:23.150Z,7.16
2022-11-24T22:48:54.250Z,7.22
2022-11-24T22:51:26.019Z,7.23
2022-11-24T22:53:55.789Z,7.20
2022-11-24T22:56:24.496Z,7.11
2022-11-24T22:58:51.831Z,6.97
2022-11-24T23:01:21.232Z,6.96
2022-11-24T23:03:49.465Z,6.94
2022-11-24T23:06:20.269Z,7.03
2022-11-24T23:08:48.620Z,6.96
2022-11-24T23:11:31.553Z,7.01
2022-11-24T23:14:00.522Z,7.04
2022-11-24T23:16:29.177Z,7.08
2022-11-24T23:18:57.142Z,7.21
2022-11-24T23:21:29.634Z,7.19
2022-11-24T23:23:58.869Z,7.10
2022-11-24T23:26:28.870Z,7.14
2022-11-24T23:28:56.512Z,7.15
2022-11-24T23:31:31.697Z,7.24
2022-11-24T23:34:01.225Z,7.17
2022-11-24T23:36:29.975Z,7.19
2022-11-24T23:39:02.461Z,7.11
2022-11-24T23:41:31.708Z,7.05
2022-11-24T23:44:00.028Z,7.08
2022-11-24T23:46:27.913Z,6.92
2022-11-24T23:48:55.897Z,7.07
2022-11-24T23:51:31.089Z,7.03
2022-11-24T23:53:59.626Z,6.89
2022-11-24T23:56:31.448Z,6.79
2022-11-24T23:59:00.099Z,6.83
